createdAt,value
2022-09-25T00:05:45.913Z,46.50
2022-09-25T00:11:48.258Z,42.80
2022-09-25T00:17:50.636Z,37.85
2022-09-25T00:23:53.437Z,41.45
2022-09-25T00:36:04.183Z,38.17
2022-09-25T00:42:06.667Z,33.28
2022-09-25T00:48:15.095Z,40.72
2022-09-25T00:54:32.491Z,35.80
2022-09-25T01:00:35.054Z,28.80
2022-09-25T01:06:37.400Z,28.52
2022-09-25T01:12:43.737Z,32.53
2022-09-25T01:18:52.456Z,32.20
2022-09-25T01:25:29.346Z,29.65
2022-09-25T01:31:52.016Z,26.52
2022-09-25T01:38:00.432Z,29.48
2022-09-25T01:44:32.432Z,26.73
2022-09-25T01:50:42.046Z,35.92
2022-09-25T01:56:57.862Z,31.25
2022-09-25T02:03:09.752Z,26.38
2022-09-25T02:09:17.746Z,20.38
2022-09-25T02:15:43.868Z,30.55
2022-09-25T02:21:49.415Z,32.38
2022-09-25T02:27:51.831Z,27.98
2022-09-25T02:33:54.147Z,28.58
2022-09-25T02:40:00.827Z,28.48
2022-09-25T02:46:56.509Z,32.30
2022-09-25T02:53:27.023Z,23.05
2022-09-25T02:59:38.369Z,30.15
2022-09-25T03:05:41.718Z,22.70
2022-09-25T03:11:44.719Z,23.85
2022-09-25T03:17:48.476Z,23.13
2022-09-25T03:23:50.692Z,27.15
2022-09-25T03:29:53.127Z,22.45
2022-09-25T03:36:12.501Z,30.73
2022-09-25T03:42:14.817Z,21.73
2022-09-25T03:48:18.129Z,22.77
2022-09-25T03:54:20.612Z,17.05
2022-09-25T04:00:24.358Z,16.90
2022-09-25T04:06:27.149Z,20.05
2022-09-25T04:18:32.940Z,20.90
2022-09-25T04:24:50.211Z,21.67
2022-09-25T04:30:52.576Z,17.73
2022-09-25T04:36:54.787Z,28.50
2022-09-25T04:43:01.646Z,15.53
2022-09-25T04:49:03.874Z,30.70
2022-09-25T04:55:06.933Z,23.15
2022-09-25T05:01:10.394Z,17.42
2022-09-25T05:07:12.664Z,18.35
2022-09-25T05:13:14.911Z,18.67
2022-09-25T05:19:17.396Z,13.55
2022-09-25T05:25:22.433Z,16.23
2022-09-25T05:31:24.927Z,14.00
2022-09-25T05:37:27.156Z,16.15
2022-09-25T05:43:29.624Z,18.35
2022-09-25T05:49:31.692Z,15.32
2022-09-25T06:01:35.818Z,17.65
2022-09-25T06:07:37.846Z,18.40
2022-09-25T06:19:42.027Z,13.97
2022-09-25T06:25:44.643Z,15.65
2022-09-25T06:31:46.865Z,14.45
2022-09-25T06:37:49.004Z,13.30
2022-09-25T06:43:52.018Z,11.77
2022-09-25T06:49:54.307Z,17.38
2022-09-25T06:55:59.859Z,12.40
2022-09-25T07:02:22.118Z,16.67
2022-09-25T07:08:24.720Z,17.10
2022-09-25T07:14:26.894Z,16.33
2022-09-25T07:20:28.937Z,17.85
2022-09-25T07:26:34.070Z,11.13
2022-09-25T07:32:36.334Z,23.48
2022-09-25T07:38:39.613Z,16.35
2022-09-25T07:44:46.081Z,13.10
2022-09-25T07:50:50.427Z,11.63
2022-09-25T07:56:52.750Z,11.25
2022-09-25T08:02:59.537Z,12.07
2022-09-25T08:09:04.575Z,9.98
2022-09-25T08:15:09.550Z,11.75
2022-09-25T08:21:14.498Z,12.48
2022-09-25T08:27:16.640Z,12.93
2022-09-25T08:33:18.735Z,9.68
2022-09-25T08:39:20.946Z,12.70
2022-09-25T08:45:53.129Z,8.20
2022-09-25T08:52:01.078Z,6.20
2022-09-25T08:58:03.499Z,8.23
2022-09-25T09:04:11.390Z,11.30
2022-09-25T09:10:45.925Z,10.00
2022-09-25T09:17:03.788Z,7.25
2022-09-25T09:23:11.058Z,7.20
2022-09-25T09:29:27.302Z,7.45
2022-09-25T09:35:57.536Z,11.13
2022-09-25T09:42:02.681Z,11.25
2022-09-25T09:48:23.053Z,7.22
2022-09-25T09:54:36.950Z,13.45
2022-09-25T10:00:40.415Z,9.30
2022-09-25T10:07:03.817Z,13.57
2022-09-25T10:13:42.885Z,14.77
2022-09-25T10:19:49.587Z,16.10
2022-09-25T10:25:55.846Z,13.77
2022-09-25T10:32:02.810Z,9.25
2022-09-25T10:38:06.797Z,9.43
2022-09-25T10:44:28.792Z,5.50
2022-09-25T10:50:31.138Z,6.55
2022-09-25T10:56:36.319Z,11.10
2022-09-25T11:02:43.051Z,5.88
2022-09-25T11:08:46.439Z,7.38
2022-09-25T11:15:01.882Z,6.95
2022-09-25T11:21:05.689Z,8.27
2022-09-25T11:27:20.595Z,7.88
2022-09-25T11:33:49.432Z,3.92
2022-09-25T11:40:31.853Z,5.32
2022-09-25T11:47:02.551Z,6.82
2022-09-25T11:53:33.916Z,4.03
2022-09-25T12:00:20.343Z,5.00
2022-09-25T12:06:39.132Z,9.82
2022-09-25T12:13:06.776Z,4.22
2022-09-25T12:19:23.819Z,5.68
2022-09-25T12:25:42.076Z,11.88
2022-09-25T12:32:04.879Z,4.43
2022-09-25T12:38:32.215Z,5.50
2022-09-25T12:44:47.796Z,4.22
2022-09-25T12:51:05.545Z,5.10
2022-09-25T12:57:17.062Z,5.07
2022-09-25T13:03:33.649Z,10.73
2022-09-25T13:09:45.259Z,7.72
2022-09-25T13:15:58.618Z,5.03
2022-09-25T13:22:32.574Z,10.05
2022-09-25T13:28:38.688Z,4.35
2022-09-25T13:34:42.611Z,6.20
2022-09-25T13:40:50.629Z,4.72
2022-09-25T13:47:22.440Z,9.25
2022-09-25T13:53:27.568Z,6.38
2022-09-25T13:59:37.816Z,5.90
2022-09-25T14:05:43.204Z,4.07
2022-09-25T14:11:56.644Z,7.30
2022-09-25T14:18:01.154Z,11.82
2022-09-25T14:24:32.798Z,7.90
2022-09-25T14:30:35.196Z,6.30
2022-09-25T14:37:29.934Z,4.63
2022-09-25T14:44:10.151Z,8.93
2022-09-25T14:50:25.513Z,5.93
2022-09-25T14:56:34.333Z,3.22
2022-09-25T15:02:40.014Z,4.30
2022-09-25T15:08:42.588Z,8.50
2022-09-25T15:15:16.730Z,9.32
2022-09-25T15:21:33.867Z,5.93
2022-09-25T15:27:42.935Z,6.90
2022-09-25T15:33:46.077Z,9.35
2022-09-25T15:39:48.438Z,10.23
2022-09-25T15:46:03.746Z,8.00
2022-09-25T15:52:22.717Z,13.25
2022-09-25T15:58:24.905Z,21.42
2022-09-25T16:04:45.470Z,18.23
2022-09-25T16:10:50.091Z,20.70
2022-09-25T16:16:52.680Z,52.63
2022-09-25T16:23:01.113Z,31.40
2022-09-25T16:29:12.321Z,29.95
2022-09-25T16:35:44.787Z,25.45
2022-09-25T16:41:52.730Z,20.13
2022-09-25T16:47:55.234Z,21.50
2022-09-25T16:54:01.263Z,21.13
2022-09-25T17:00:06.183Z,31.77
2022-09-25T17:06:08.787Z,33.10
2022-09-25T17:18:21.541Z,35.83
2022-09-25T17:24:26.944Z,25.30
2022-09-25T17:30:29.109Z,24.48
2022-09-25T17:36:31.119Z,30.13
2022-09-25T17:42:33.156Z,28.83
2022-09-25T17:48:35.464Z,30.20
2022-09-25T17:54:37.530Z,39.80
2022-09-25T18:00:39.749Z,32.37
2022-09-25T18:06:43.933Z,32.92
2022-09-25T18:12:45.944Z,39.28
2022-09-25T18:19:07.130Z,35.47
2022-09-25T18:25:10.868Z,39.50
2022-09-25T18:31:14.460Z,31.50
2022-09-25T18:37:16.713Z,37.55
2022-09-25T18:43:18.847Z,31.38
2022-09-25T18:49:21.275Z,33.60
2022-09-25T18:55:23.343Z,42.83
2022-09-25T19:01:25.450Z,44.53
2022-09-25T19:07:29.407Z,40.47
2022-09-25T19:13:31.504Z,44.97
2022-09-25T19:19:35.348Z,35.73
2022-09-25T19:25:37.424Z,38.88
2022-09-25T19:31:39.802Z,36.97
2022-09-25T19:37:42.487Z,47.70
2022-09-25T19:43:44.636Z,39.45
2022-09-25T19:49:46.713Z,44.93
2022-09-25T19:55:53.242Z,45.00
2022-09-25T20:01:55.340Z,42.53
2022-09-25T20:07:57.408Z,44.17
2022-09-25T20:14:01.322Z,42.60
2022-09-25T20:20:03.911Z,45.28
2022-09-25T20:26:13.512Z,38.22
2022-09-25T20:32:15.464Z,41.47
2022-09-25T20:38:17.466Z,53.83
2022-09-25T20:44:19.538Z,62.37
2022-09-25T20:50:21.898Z,58.13
2022-09-25T20:56:24.862Z,40.88
2022-09-25T21:02:27.080Z,43.75
2022-09-25T21:08:33.402Z,44.88
2022-09-25T21:14:35.430Z,50.25
2022-09-25T21:20:38.419Z,49.17
2022-09-25T21:26:40.840Z,41.97
2022-09-25T21:32:42.860Z,48.67
2022-09-25T21:38:44.891Z,43.00
2022-09-25T21:44:47.772Z,43.23
2022-09-25T21:50:54.215Z,43.50
2022-09-25T21:56:56.276Z,46.65
2022-09-25T22:02:58.380Z,38.07
2022-09-25T22:09:16.079Z,40.30
2022-09-25T22:15:18.248Z,50.10
2022-09-25T22:21:22.481Z,42.60
2022-09-25T22:27:24.761Z,39.80
2022-09-25T22:33:26.871Z,32.83
2022-09-25T22:39:29.685Z,48.83
2022-09-25T22:51:33.838Z,43.95
2022-09-25T22:57:39.280Z,43.47
2022-09-25T23:03:41.341Z,42.22
2022-09-25T23:09:43.483Z,39.03
2022-09-25T23:15:45.614Z,40.80
2022-09-25T23:21:49.056Z,44.83
2022-09-25T23:27:51.539Z,36.40
2022-09-25T23:33:53.697Z,41.25
2022-09-25T23:39:56.171Z,32.10
2022-09-25T23:45:58.337Z,36.35
2022-09-25T23:52:00.529Z,34.27
2022-09-25T23:58:02.822Z,39.73
